sensor_id;sensor_type;location;lat;lon;timestamp;pressure;altitude;pressure_sealevel;temperature;humidity
8894;BME280;4483;48.622;9.230;2023-01-28T00:01:47;98448.69;;;0.82;95.12
8894;BME280;4483;48.622;9.230;2023-01-28T00:04:14;98447.00;;;0.80;94.94
8894;BME280;4483;48.622;9.230;2023-01-28T00:06:41;98444.47;;;0.80;94.84
8894;BME280;4483;48.622;9.230;2023-01-28T00:09:08;98437.72;;;0.80;95.36
8894;BME280;4483;48.622;9.230;2023-01-28T00:11:35;98441.94;;;0.80;95.03
8894;BME280;4483;48.622;9.230;2023-01-28T00:14:03;98441.94;;;0.81;94.90
8894;BME280;4483;48.622;9.230;2023-01-28T00:16:30;98439.41;;;0.80;95.36
8894;BME280;4483;48.622;9.230;2023-01-28T00:18:56;98436.84;;;0.77;95.39
8894;BME280;4483;48.622;9.230;2023-01-28T00:21:23;98432.59;;;0.79;94.62
8894;BME280;4483;48.622;9.230;2023-01-28T00:23:52;98436.88;;;0.81;95.42
8894;BME280;4483;48.622;9.230;2023-01-28T00:26:20;98432.66;;;0.82;95.62
8894;BME280;4483;48.622;9.230;2023-01-28T00:28:47;98426.72;;;0.83;95.82
8894;BME280;4483;48.622;9.230;2023-01-28T00:31:17;98419.97;;;0.83;95.19
8894;BME280;4483;48.622;9.230;2023-01-28T00:33:45;98418.31;;;0.88;96.02
8894;BME280;4483;48.622;9.230;2023-01-28T00:36:13;98423.31;;;0.82;95.37
8894;BME280;4483;48.622;9.230;2023-01-28T00:38:40;98419.13;;;0.84;95.55
8894;BME280;4483;48.622;9.230;2023-01-28T00:41:08;98424.22;;;0.86;95.50
8894;BME280;4483;48.622;9.230;2023-01-28T00:43:35;98418.28;;;0.85;95.64
8894;BME280;4483;48.622;9.230;2023-01-28T00:46:02;98421.66;;;0.84;95.38
8894;BME280;4483;48.622;9.230;2023-01-28T00:48:30;98419.97;;;0.83;94.86
8894;BME280;4483;48.622;9.230;2023-01-28T00:50:56;98425.84;;;0.81;94.78
8894;BME280;4483;48.622;9.230;2023-01-28T00:53:23;98421.63;;;0.78;94.85
8894;BME280;4483;48.622;9.230;2023-01-28T00:55:50;98414.03;;;0.80;95.14
8894;BME280;4483;48.622;9.230;2023-01-28T00:58:16;98413.19;;;0.79;94.65
8894;BME280;4483;48.622;9.230;2023-01-28T01:00:43;98419.91;;;0.79;95.06
8894;BME280;4483;48.622;9.230;2023-01-28T01:03:10;98423.31;;;0.79;95.27
8894;BME280;4483;48.622;9.230;2023-01-28T01:05:38;98425.84;;;0.81;94.81
8894;BME280;4483;48.622;9.230;2023-01-28T01:08:05;98425.03;;;0.83;95.45
8894;BME280;4483;48.622;9.230;2023-01-28T01:10:31;98427.56;;;0.83;95.24
8894;BME280;4483;48.622;9.230;2023-01-28T01:12:59;98436.00;;;0.82;95.23
8894;BME280;4483;48.622;9.230;2023-01-28T01:15:26;98430.97;;;0.84;94.68
8894;BME280;4483;48.622;9.230;2023-01-28T01:17:52;98431.81;;;0.84;94.85
8894;BME280;4483;48.622;9.230;2023-01-28T01:20:21;98430.97;;;0.85;95.41
8894;BME280;4483;48.622;9.230;2023-01-28T01:22:50;98424.22;;;0.87;95.66
8894;BME280;4483;48.622;9.230;2023-01-28T01:25:18;98417.44;;;0.83;95.16
8894;BME280;4483;48.622;9.230;2023-01-28T01:27:48;98429.31;;;0.89;95.79
8894;BME280;4483;48.622;9.230;2023-01-28T01:30:15;98428.44;;;0.88;94.76
8894;BME280;4483;48.622;9.230;2023-01-28T01:32:42;98428.50;;;0.91;95.66
8894;BME280;4483;48.622;9.230;2023-01-28T01:35:09;98431.84;;;0.90;95.21
8894;BME280;4483;48.622;9.230;2023-01-28T01:37:36;98433.56;;;0.94;95.54
8894;BME280;4483;48.622;9.230;2023-01-28T01:40:05;98430.19;;;0.95;95.29
8894;BME280;4483;48.622;9.230;2023-01-28T01:42:32;98434.44;;;0.95;95.16
8894;BME280;4483;48.622;9.230;2023-01-28T01:45:00;98432.72;;;0.92;95.36
8894;BME280;4483;48.622;9.230;2023-01-28T01:47:32;98438.63;;;0.91;95.22
8894;BME280;4483;48.622;9.230;2023-01-28T01:50:03;98434.38;;;0.92;95.10
8894;BME280;4483;48.622;9.230;2023-01-28T01:52:34;98433.56;;;0.91;94.46
8894;BME280;4483;48.622;9.230;2023-01-28T01:55:08;98441.19;;;0.91;94.79
8894;BME280;4483;48.622;9.230;2023-01-28T01:57:37;98442.00;;;0.90;94.71
8894;BME280;4483;48.622;9.230;2023-01-28T02:00:06;98436.91;;;0.87;94.24
8894;BME280;4483;48.622;9.230;2023-01-28T02:02:36;98450.41;;;0.86;94.03
8894;BME280;4483;48.622;9.230;2023-01-28T02:05:05;98449.59;;;0.86;94.67
8894;BME280;4483;48.622;9.230;2023-01-28T02:07:33;98449.59;;;0.87;94.90
8894;BME280;4483;48.622;9.230;2023-01-28T02:10:01;98454.69;;;0.92;94.83
8894;BME280;4483;48.622;9.230;2023-01-28T02:12:33;98454.69;;;0.93;95.55
8894;BME280;4483;48.622;9.230;2023-01-28T02:15:04;98452.19;;;0.95;95.42
8894;BME280;4483;48.622;9.230;2023-01-28T02:17:31;98453.88;;;0.96;95.07
8894;BME280;4483;48.622;9.230;2023-01-28T02:20:00;98450.47;;;0.95;94.67
8894;BME280;4483;48.622;9.230;2023-01-28T02:22:58;98451.34;;;0.94;95.25
8894;BME280;4483;48.622;9.230;2023-01-28T02:25:48;98458.94;;;0.94;94.91
8894;BME280;4483;48.622;9.230;2023-01-28T02:28:27;98452.16;;;0.93;95.21
8894;BME280;4483;48.622;9.230;2023-01-28T02:30:58;98460.63;;;0.95;95.14
8894;BME280;4483;48.622;9.230;2023-01-28T02:33:31;98462.34;;;0.96;94.85
8894;BME280;4483;48.622;9.230;2023-01-28T02:36:05;98457.28;;;0.96;94.77
8894;BME280;4483;48.622;9.230;2023-01-28T02:38:37;98453.88;;;0.97;94.85
8894;BME280;4483;48.622;9.230;2023-01-28T02:41:10;98459.81;;;0.99;95.40
8894;BME280;4483;48.622;9.230;2023-01-28T02:43:41;98453.88;;;0.97;95.22
8894;BME280;4483;48.622;9.230;2023-01-28T02:46:17;98457.22;;;0.93;95.11
8894;BME280;4483;48.622;9.230;2023-01-28T02:49:06;98458.06;;;0.91;95.09
8894;BME280;4483;48.622;9.230;2023-01-28T02:51:49;98457.22;;;0.90;94.95
8894;BME280;4483;48.622;9.230;2023-01-28T02:54:28;98463.16;;;0.91;95.11
8894;BME280;4483;48.622;9.230;2023-01-28T02:57:06;98454.69;;;0.89;95.27
8894;BME280;4483;48.622;9.230;2023-01-28T02:59:41;98459.75;;;0.89;95.04
8894;BME280;4483;48.622;9.230;2023-01-28T03:02:19;98453.84;;;0.91;95.41
8894;BME280;4483;48.622;9.230;2023-01-28T03:04:52;98458.09;;;0.94;95.68
8894;BME280;4483;48.622;9.230;2023-01-28T03:07:22;98461.47;;;0.91;95.44
8894;BME280;4483;48.622;9.230;2023-01-28T03:09:49;98457.22;;;0.87;95.59
8894;BME280;4483;48.622;9.230;2023-01-28T03:12:19;98465.69;;;0.92;96.06
8894;BME280;4483;48.622;9.230;2023-01-28T03:15:09;98465.69;;;0.95;96.12
8894;BME280;4483;48.622;9.230;2023-01-28T03:18:00;98469.09;;;0.96;95.78
8894;BME280;4483;48.622;9.230;2023-01-28T03:20:49;98460.66;;;0.98;95.49
8894;BME280;4483;48.622;9.230;2023-01-28T03:23:39;98464.06;;;1.00;95.36
8894;BME280;4483;48.622;9.230;2023-01-28T03:26:26;98462.34;;;0.96;95.66
8894;BME280;4483;48.622;9.230;2023-01-28T03:29:13;98469.97;;;0.98;95.60
8894;BME280;4483;48.622;9.230;2023-01-28T03:32:00;98462.34;;;0.99;95.97
8894;BME280;4483;48.622;9.230;2023-01-28T03:34:45;98464.94;;;1.02;95.88
8894;BME280;4483;48.622;9.230;2023-01-28T03:37:30;98460.69;;;1.04;95.77
8894;BME280;4483;48.622;9.230;2023-01-28T03:40:01;98465.81;;;1.06;95.74
8894;BME280;4483;48.622;9.230;2023-01-28T03:42:30;98455.63;;;1.04;96.00
8894;BME280;4483;48.622;9.230;2023-01-28T03:44:57;98466.63;;;1.07;95.79
8894;BME280;4483;48.622;9.230;2023-01-28T03:47:28;98468.34;;;1.09;96.38
8894;BME280;4483;48.622;9.230;2023-01-28T03:49:56;98465.81;;;1.11;95.72
8894;BME280;4483;48.622;9.230;2023-01-28T03:52:26;98466.66;;;1.08;96.23
8894;BME280;4483;48.622;9.230;2023-01-28T03:54:53;98480.19;;;1.10;96.23
8894;BME280;4483;48.622;9.230;2023-01-28T03:57:21;98482.72;;;1.10;95.68
8894;BME280;4483;48.622;9.230;2023-01-28T03:59:48;98475.94;;;1.08;95.97
8894;BME280;4483;48.622;9.230;2023-01-28T04:02:18;98481.00;;;1.04;95.39
8894;BME280;4483;48.622;9.230;2023-01-28T04:04:46;98481.00;;;1.04;95.48
8894;BME280;4483;48.622;9.230;2023-01-28T04:07:14;98476.78;;;1.05;96.18
8894;BME280;4483;48.622;9.230;2023-01-28T04:09:42;98479.31;;;1.05;96.25
8894;BME280;4483;48.622;9.230;2023-01-28T04:12:09;98476.78;;;1.07;96.48
8894;BME280;4483;48.622;9.230;2023-01-28T04:14:36;98483.56;;;1.08;95.84
8894;BME280;4483;48.622;9.230;2023-01-28T04:17:03;98479.31;;;1.07;96.19
8894;BME280;4483;48.622;9.230;2023-01-28T04:19:31;98475.94;;;1.06;95.70
8894;BME280;4483;48.622;9.230;2023-01-28T04:22:04;98481.03;;;1.08;96.57
8894;BME280;4483;48.622;9.230;2023-01-28T04:24:31;98483.56;;;1.06;95.94
8894;BME280;4483;48.622;9.230;2023-01-28T04:26:58;98488.63;;;1.06;96.71
8894;BME280;4483;48.622;9.230;2023-01-28T04:29:24;98498.78;;;1.08;96.78
8894;BME280;4483;48.622;9.230;2023-01-28T04:31:51;98501.31;;;1.08;96.92
8894;BME280;4483;48.622;9.230;2023-01-28T04:34:18;98507.25;;;1.08;96.48
8894;BME280;4483;48.622;9.230;2023-01-28T04:36:45;98498.78;;;1.09;96.31
8894;BME280;4483;48.622;9.230;2023-01-28T04:39:13;98499.66;;;1.08;96.26
8894;BME280;4483;48.622;9.230;2023-01-28T04:41:39;98503.88;;;1.08;96.91
8894;BME280;4483;48.622;9.230;2023-01-28T04:44:06;98504.72;;;1.10;96.68
8894;BME280;4483;48.622;9.230;2023-01-28T04:46:33;98508.94;;;1.09;96.53
8894;BME280;4483;48.622;9.230;2023-01-28T04:49:00;98512.28;;;1.05;96.97
8894;BME280;4483;48.622;9.230;2023-01-28T04:51:27;98518.22;;;1.07;96.56
8894;BME280;4483;48.622;9.230;2023-01-28T04:53:54;98522.50;;;1.08;96.66
8894;BME280;4483;48.622;9.230;2023-01-28T04:56:22;98514.03;;;1.09;96.80
8894;BME280;4483;48.622;9.230;2023-01-28T04:58:49;98518.28;;;1.12;97.17
8894;BME280;4483;48.622;9.230;2023-01-28T05:01:15;98516.56;;;1.14;97.41
8894;BME280;4483;48.622;9.230;2023-01-28T05:03:42;98510.69;;;1.16;97.37
8894;BME280;4483;48.622;9.230;2023-01-28T05:06:09;98514.94;;;1.17;97.21
8894;BME280;4483;48.622;9.230;2023-01-28T05:08:35;98520.03;;;1.19;97.52
8894;BME280;4483;48.622;9.230;2023-01-28T05:11:02;98518.34;;;1.21;97.03
8894;BME280;4483;48.622;9.230;2023-01-28T05:13:30;98514.13;;;1.23;97.11
8894;BME280;4483;48.622;9.230;2023-01-28T05:15:57;98515.81;;;1.24;96.84
8894;BME280;4483;48.622;9.230;2023-01-28T05:18:23;98517.50;;;1.25;97.37
8894;BME280;4483;48.622;9.230;2023-01-28T05:20:50;98515.81;;;1.24;96.87
8894;BME280;4483;48.622;9.230;2023-01-28T05:23:16;98519.22;;;1.24;97.43
8894;BME280;4483;48.622;9.230;2023-01-28T05:25:43;98522.56;;;1.25;97.08
8894;BME280;4483;48.622;9.230;2023-01-28T05:28:10;98524.28;;;1.24;97.54
8894;BME280;4483;48.622;9.230;2023-01-28T05:30:38;98520.88;;;1.24;96.96
8894;BME280;4483;48.622;9.230;2023-01-28T05:33:05;98514.97;;;1.23;97.20
8894;BME280;4483;48.622;9.230;2023-01-28T05:35:32;98524.28;;;1.24;97.01
8894;BME280;4483;48.622;9.230;2023-01-28T05:37:58;98525.13;;;1.25;97.58
8894;BME280;4483;48.622;9.230;2023-01-28T05:40:25;98523.44;;;1.27;97.63
8894;BME280;4483;48.622;9.230;2023-01-28T05:42:52;98515.81;;;1.25;97.45
8894;BME280;4483;48.622;9.230;2023-01-28T05:45:20;98520.91;;;1.27;97.58
8894;BME280;4483;48.622;9.230;2023-01-28T05:47:48;98524.28;;;1.26;98.11
8894;BME280;4483;48.622;9.230;2023-01-28T05:50:15;98525.97;;;1.24;98.08
8894;BME280;4483;48.622;9.230;2023-01-28T05:52:41;98528.50;;;1.22;97.09
8894;BME280;4483;48.622;9.230;2023-01-28T05:55:08;98529.31;;;1.21;97.86
8894;BME280;4483;48.622;9.230;2023-01-28T05:57:35;98528.50;;;1.21;98.34
8894;BME280;4483;48.622;9.230;2023-01-28T06:00:03;98538.66;;;1.21;98.03
8894;BME280;4483;48.622;9.230;2023-01-28T06:02:30;98530.19;;;1.22;97.66
8894;BME280;4483;48.622;9.230;2023-01-28T06:04:58;98531.91;;;1.23;97.79
8894;BME280;4483;48.622;9.230;2023-01-28T06:07:25;98531.91;;;1.24;98.38
8894;BME280;4483;48.622;9.230;2023-01-28T06:09:51;98533.59;;;1.27;98.37
8894;BME280;4483;48.622;9.230;2023-01-28T06:12:18;98542.06;;;1.23;97.99
8894;BME280;4483;48.622;9.230;2023-01-28T06:14:44;98545.41;;;1.23;98.30
8894;BME280;4483;48.622;9.230;2023-01-28T06:17:11;98541.19;;;1.24;98.29
8894;BME280;4483;48.622;9.230;2023-01-28T06:19:38;98542.88;;;1.22;98.39
8894;BME280;4483;48.622;9.230;2023-01-28T06:22:06;98551.34;;;1.24;98.00
8894;BME280;4483;48.622;9.230;2023-01-28T06:24:32;98546.28;;;1.25;98.56
8894;BME280;4483;48.622;9.230;2023-01-28T06:26:59;98553.91;;;1.27;98.13
8894;BME280;4483;48.622;9.230;2023-01-28T06:29:25;98553.91;;;1.27;97.74
8894;BME280;4483;48.622;9.230;2023-01-28T06:31:52;98554.75;;;1.26;98.68
8894;BME280;4483;48.622;9.230;2023-01-28T06:34:19;98570.00;;;1.29;98.15
8894;BME280;4483;48.622;9.230;2023-01-28T06:36:45;98565.78;;;1.29;98.62
8894;BME280;4483;48.622;9.230;2023-01-28T06:39:13;98571.72;;;1.31;98.44
8894;BME280;4483;48.622;9.230;2023-01-28T06:41:40;98579.34;;;1.33;98.15
8894;BME280;4483;48.622;9.230;2023-01-28T06:44:07;98575.06;;;1.30;98.44
8894;BME280;4483;48.622;9.230;2023-01-28T06:46:34;98585.25;;;1.32;98.69
8894;BME280;4483;48.622;9.230;2023-01-28T06:49:01;98586.94;;;1.30;98.17
8894;BME280;4483;48.622;9.230;2023-01-28T06:51:28;98586.94;;;1.30;99.14
8894;BME280;4483;48.622;9.230;2023-01-28T06:53:55;98582.69;;;1.29;98.83
8894;BME280;4483;48.622;9.230;2023-01-28T06:56:23;98591.16;;;1.29;98.44
8894;BME280;4483;48.622;9.230;2023-01-28T06:58:49;98587.75;;;1.29;98.21
8894;BME280;4483;48.622;9.230;2023-01-28T07:01:16;98595.38;;;1.29;98.71
8894;BME280;4483;48.622;9.230;2023-01-28T07:03:43;98591.16;;;1.28;98.28
8894;BME280;4483;48.622;9.230;2023-01-28T07:06:09;98597.91;;;1.27;98.72
8894;BME280;4483;48.622;9.230;2023-01-28T07:08:36;98591.09;;;1.25;98.58
8894;BME280;4483;48.622;9.230;2023-01-28T07:11:04;98600.44;;;1.24;98.16
8894;BME280;4483;48.622;9.230;2023-01-28T07:13:32;98607.19;;;1.24;99.07
8894;BME280;4483;48.622;9.230;2023-01-28T07:15:59;98601.25;;;1.25;98.96
8894;BME280;4483;48.622;9.230;2023-01-28T07:18:26;98608.06;;;1.26;98.82
8894;BME280;4483;48.622;9.230;2023-01-28T07:20:52;98605.53;;;1.27;98.82
8894;BME280;4483;48.622;9.230;2023-01-28T07:23:19;98606.41;;;1.31;99.21
8894;BME280;4483;48.622;9.230;2023-01-28T07:25:45;98603.00;;;1.30;99.13
8894;BME280;4483;48.622;9.230;2023-01-28T07:28:12;98597.91;;;1.30;99.38
8894;BME280;4483;48.622;9.230;2023-01-28T07:30:47;98616.59;;;1.34;98.89
8894;BME280;4483;48.622;9.230;2023-01-28T07:33:14;98617.41;;;1.34;98.57
8894;BME280;4483;48.622;9.230;2023-01-28T07:35:40;98614.94;;;1.37;98.89
8894;BME280;4483;48.622;9.230;2023-01-28T07:38:07;98620.00;;;1.39;98.54
8894;BME280;4483;48.622;9.230;2023-01-28T07:40:34;98612.38;;;1.37;99.17
8894;BME280;4483;48.622;9.230;2023-01-28T07:43:01;98615.81;;;1.41;99.03
8894;BME280;4483;48.622;9.230;2023-01-28T07:45:27;98619.19;;;1.43;98.87
8894;BME280;4483;48.622;9.230;2023-01-28T07:47:58;98628.50;;;1.45;99.17
8894;BME280;4483;48.622;9.230;2023-01-28T07:50:26;98625.16;;;1.46;98.60
8894;BME280;4483;48.622;9.230;2023-01-28T07:52:54;98624.31;;;1.47;98.47
8894;BME280;4483;48.622;9.230;2023-01-28T07:55:21;98631.91;;;1.49;99.09
8894;BME280;4483;48.622;9.230;2023-01-28T07:57:49;98632.78;;;1.52;98.87
8894;BME280;4483;48.622;9.230;2023-01-28T08:00:16;98626.84;;;1.50;98.20
8894;BME280;4483;48.622;9.230;2023-01-28T08:02:43;98637.88;;;1.51;98.20
8894;BME280;4483;48.622;9.230;2023-01-28T08:05:15;98639.53;;;1.50;99.11
8894;BME280;4483;48.622;9.230;2023-01-28T08:07:42;98646.34;;;1.51;98.70
8894;BME280;4483;48.622;9.230;2023-01-28T08:10:10;98644.66;;;1.53;98.54
8894;BME280;4483;48.622;9.230;2023-01-28T08:12:37;98641.28;;;1.51;98.67
8894;BME280;4483;48.622;9.230;2023-01-28T08:15:05;98653.97;;;1.56;98.28
8894;BME280;4483;48.622;9.230;2023-01-28T08:17:32;98648.09;;;1.58;99.10
8894;BME280;4483;48.622;9.230;2023-01-28T08:19:58;98658.25;;;1.58;98.80
8894;BME280;4483;48.622;9.230;2023-01-28T08:22:27;98652.38;;;1.64;98.74
8894;BME280;4483;48.622;9.230;2023-01-28T08:24:54;98649.88;;;1.68;98.59
8894;BME280;4483;48.622;9.230;2023-01-28T08:27:21;98646.47;;;1.69;98.60
8894;BME280;4483;48.622;9.230;2023-01-28T08:29:48;98655.84;;;1.75;98.09
8894;BME280;4483;48.622;9.230;2023-01-28T08:32:14;98649.06;;;1.77;98.91
8894;BME280;4483;48.622;9.230;2023-01-28T08:34:41;98655.00;;;1.77;98.52
8894;BME280;4483;48.622;9.230;2023-01-28T08:37:07;98651.63;;;1.77;98.27
8894;BME280;4483;48.622;9.230;2023-01-28T08:39:35;98660.97;;;1.79;98.16
8894;BME280;4483;48.622;9.230;2023-01-28T08:42:02;98652.50;;;1.82;98.11
8894;BME280;4483;48.622;9.230;2023-01-28T08:44:30;98658.44;;;1.82;98.69
8894;BME280;4483;48.622;9.230;2023-01-28T08:46:56;98657.56;;;1.82;98.41
8894;BME280;4483;48.622;9.230;2023-01-28T08:49:23;98659.28;;;1.83;97.92
8894;BME280;4483;48.622;9.230;2023-01-28T08:51:50;98660.13;;;1.83;98.58
8894;BME280;4483;48.622;9.230;2023-01-28T08:54:17;98662.66;;;1.82;98.08
8894;BME280;4483;48.622;9.230;2023-01-28T08:56:45;98662.69;;;1.88;98.33
8894;BME280;4483;48.622;9.230;2023-01-28T08:59:13;98656.75;;;1.89;98.08
8894;BME280;4483;48.622;9.230;2023-01-28T09:01:39;98661.88;;;1.92;98.15
8894;BME280;4483;48.622;9.230;2023-01-28T09:04:06;98671.19;;;1.94;98.09
8894;BME280;4483;48.622;9.230;2023-01-28T09:06:33;98672.06;;;1.93;98.25
8894;BME280;4483;48.622;9.230;2023-01-28T09:09:00;98670.38;;;1.95;97.89
8894;BME280;4483;48.622;9.230;2023-01-28T09:11:27;98674.59;;;1.98;98.23
8894;BME280;4483;48.622;9.230;2023-01-28T09:13:57;98674.66;;;2.01;98.45
8894;BME280;4483;48.622;9.230;2023-01-28T09:16:24;98673.78;;;2.02;97.96
8894;BME280;4483;48.622;9.230;2023-01-28T09:18:51;98670.44;;;2.04;98.27
8894;BME280;4483;48.622;9.230;2023-01-28T09:21:18;98676.38;;;2.10;98.42
8894;BME280;4483;48.622;9.230;2023-01-28T09:23:45;98678.94;;;2.13;97.91
8894;BME280;4483;48.622;9.230;2023-01-28T09:26:12;98674.75;;;2.16;97.45
8894;BME280;4483;48.622;9.230;2023-01-28T09:28:38;98668.81;;;2.19;97.60
8894;BME280;4483;48.622;9.230;2023-01-28T09:31:08;98681.56;;;2.26;97.15
8894;BME280;4483;48.622;9.230;2023-01-28T09:33:36;98679.88;;;2.28;96.98
8894;BME280;4483;48.622;9.230;2023-01-28T09:36:05;98680.75;;;2.33;96.70
8894;BME280;4483;48.622;9.230;2023-01-28T09:38:32;98690.09;;;2.34;95.51
8894;BME280;4483;48.622;9.230;2023-01-28T09:41:01;98693.50;;;2.36;96.27
8894;BME280;4483;48.622;9.230;2023-01-28T09:43:47;98684.19;;;2.46;96.37
8894;BME280;4483;48.622;9.230;2023-01-28T09:46:18;98684.25;;;2.49;96.37
8894;BME280;4483;48.622;9.230;2023-01-28T09:48:47;98692.72;;;2.58;95.86
8894;BME280;4483;48.622;9.230;2023-01-28T09:51:25;98690.22;;;2.64;94.38
8894;BME280;4483;48.622;9.230;2023-01-28T09:53:56;98692.78;;;2.66;93.56
8894;BME280;4483;48.622;9.230;2023-01-28T09:56:29;98698.75;;;2.77;93.66
8894;BME280;4483;48.622;9.230;2023-01-28T09:58:57;98693.69;;;2.80;93.04
8894;BME280;4483;48.622;9.230;2023-01-28T10:01:37;98692.84;;;2.82;93.58
8894;BME280;4483;48.622;9.230;2023-01-28T10:04:17;98698.84;;;2.96;93.86
8894;BME280;4483;48.622;9.230;2023-01-28T10:06:53;98700.53;;;3.06;93.35
8894;BME280;4483;48.622;9.230;2023-01-28T10:09:31;98697.16;;;3.11;91.91
8894;BME280;4483;48.622;9.230;2023-01-28T10:12:09;98692.91;;;3.08;91.18
8894;BME280;4483;48.622;9.230;2023-01-28T10:14:49;98688.66;;;3.12;91.64
8894;BME280;4483;48.622;9.230;2023-01-28T10:17:26;98698.88;;;3.15;91.18
8894;BME280;4483;48.622;9.230;2023-01-28T10:19:56;98686.97;;;3.15;90.43
8894;BME280;4483;48.622;9.230;2023-01-28T10:22:27;98692.94;;;3.25;91.22
8894;BME280;4483;48.622;9.230;2023-01-28T10:24:57;98692.97;;;3.31;90.56
8894;BME280;4483;48.622;9.230;2023-01-28T10:27:32;98686.19;;;3.31;90.03
8894;BME280;4483;48.622;9.230;2023-01-28T10:30:15;98693.81;;;3.33;88.55
8894;BME280;4483;48.622;9.230;2023-01-28T10:32:51;98693.78;;;3.30;89.26
8894;BME280;4483;48.622;9.230;2023-01-28T10:35:18;98688.72;;;3.22;89.10
8894;BME280;4483;48.622;9.230;2023-01-28T10:37:45;98681.88;;;3.15;87.60
8894;BME280;4483;48.622;9.230;2023-01-28T10:40:14;98683.59;;;3.15;88.68
8894;BME280;4483;48.622;9.230;2023-01-28T10:42:42;98682.78;;;3.19;88.61
8894;BME280;4483;48.622;9.230;2023-01-28T10:45:16;98680.22;;;3.25;88.26
8894;BME280;4483;48.622;9.230;2023-01-28T10:47:48;98673.44;;;3.36;89.37
8894;BME280;4483;48.622;9.230;2023-01-28T10:50:21;98673.47;;;3.40;88.76
8894;BME280;4483;48.622;9.230;2023-01-28T10:52:54;98672.59;;;3.38;87.63
8894;BME280;4483;48.622;9.230;2023-01-28T10:55:22;98675.13;;;3.34;87.57
8894;BME280;4483;48.622;9.230;2023-01-28T10:57:49;98673.44;;;3.22;86.96
8894;BME280;4483;48.622;9.230;2023-01-28T11:00:22;98674.25;;;3.15;87.33
8894;BME280;4483;48.622;9.230;2023-01-28T11:02:51;98671.72;;;3.17;88.12
8894;BME280;4483;48.622;9.230;2023-01-28T11:05:21;98676.81;;;3.18;86.56
8894;BME280;4483;48.622;9.230;2023-01-28T11:07:50;98675.97;;;3.16;87.47
8894;BME280;4483;48.622;9.230;2023-01-28T11:10:30;98677.63;;;3.08;86.23
8894;BME280;4483;48.622;9.230;2023-01-28T11:12:59;98680.19;;;3.06;87.36
8894;BME280;4483;48.622;9.230;2023-01-28T11:15:26;98676.78;;;3.04;87.70
8894;BME280;4483;48.622;9.230;2023-01-28T11:17:57;98675.91;;;3.04;88.15
8894;BME280;4483;48.622;9.230;2023-01-28T11:20:27;98674.25;;;3.01;88.25
8894;BME280;4483;48.622;9.230;2023-01-28T11:22:56;98681.88;;;3.04;88.67
8894;BME280;4483;48.622;9.230;2023-01-28T11:25:28;98681.88;;;3.03;87.37
8894;BME280;4483;48.622;9.230;2023-01-28T11:27:55;98676.78;;;3.01;86.93
8894;BME280;4483;48.622;9.230;2023-01-28T11:30:25;98680.19;;;3.03;88.15
8894;BME280;4483;48.622;9.230;2023-01-28T11:33:00;98679.34;;;3.00;87.51
8894;BME280;4483;48.622;9.230;2023-01-28T11:35:30;98678.47;;;2.99;87.31
8894;BME280;4483;48.622;9.230;2023-01-28T11:37:57;98682.72;;;2.97;86.91
8894;BME280;4483;48.622;9.230;2023-01-28T11:40:25;98688.66;;;2.99;87.89
8894;BME280;4483;48.622;9.230;2023-01-28T11:42:52;98681.84;;;2.95;88.01
8894;BME280;4483;48.622;9.230;2023-01-28T11:45:26;98686.94;;;2.92;87.32
8894;BME280;4483;48.622;9.230;2023-01-28T11:48:23;98682.72;;;2.96;88.25
8894;BME280;4483;48.622;9.230;2023-01-28T11:50:56;98684.38;;;2.89;88.21
8894;BME280;4483;48.622;9.230;2023-01-28T11:53:45;98684.38;;;2.88;87.65
8894;BME280;4483;48.622;9.230;2023-01-28T11:56:32;98688.59;;;2.83;88.08
8894;BME280;4483;48.622;9.230;2023-01-28T11:59:18;98680.09;;;2.75;87.66
8894;BME280;4483;48.622;9.230;2023-01-28T12:01:55;98673.31;;;2.75;88.40
8894;BME280;4483;48.622;9.230;2023-01-28T12:04:42;98670.78;;;2.81;88.87
8894;BME280;4483;48.622;9.230;2023-01-28T12:07:22;98676.75;;;2.85;88.70
8894;BME280;4483;48.622;9.230;2023-01-28T12:09:54;98681.81;;;2.85;88.62
8894;BME280;4483;48.622;9.230;2023-01-28T12:12:41;98684.38;;;2.86;88.80
8894;BME280;4483;48.622;9.230;2023-01-28T12:15:32;98678.44;;;2.87;88.51
8894;BME280;4483;48.622;9.230;2023-01-28T12:18:16;98677.56;;;2.84;88.68
8894;BME280;4483;48.622;9.230;2023-01-28T12:20:53;98681.81;;;2.86;88.92
8894;BME280;4483;48.622;9.230;2023-01-28T12:23:30;98673.34;;;2.80;88.84
8894;BME280;4483;48.622;9.230;2023-01-28T12:26:06;98677.56;;;2.79;89.49
8894;BME280;4483;48.622;9.230;2023-01-28T12:28:58;98675.03;;;2.82;89.29
8894;BME280;4483;48.622;9.230;2023-01-28T12:31:52;98675.88;;;2.81;89.04
8894;BME280;4483;48.622;9.230;2023-01-28T12:34:45;98669.94;;;2.79;89.70
8894;BME280;4483;48.622;9.230;2023-01-28T12:37:22;98677.56;;;2.81;89.79
8894;BME280;4483;48.622;9.230;2023-01-28T12:40:03;98680.97;;;2.83;89.46
8894;BME280;4483;48.622;9.230;2023-01-28T12:42:35;98679.25;;;2.79;89.77
8894;BME280;4483;48.622;9.230;2023-01-28T12:45:13;98679.25;;;2.77;89.38
8894;BME280;4483;48.622;9.230;2023-01-28T12:47:48;98691.13;;;2.71;89.44
8894;BME280;4483;48.622;9.230;2023-01-28T12:50:20;98676.66;;;2.64;89.47
8894;BME280;4483;48.622;9.230;2023-01-28T12:52:54;98677.50;;;2.60;89.48
8894;BME280;4483;48.622;9.230;2023-01-28T12:55:35;98680.03;;;2.61;89.60
8894;BME280;4483;48.622;9.230;2023-01-28T12:58:04;98685.13;;;2.63;90.32
8894;BME280;4483;48.622;9.230;2023-01-28T13:00:34;98674.97;;;2.66;90.40
8894;BME280;4483;48.622;9.230;2023-01-28T13:03:10;98668.19;;;2.69;90.53
8894;BME280;4483;48.622;9.230;2023-01-28T13:05:43;98680.94;;;2.72;90.66
8894;BME280;4483;48.622;9.230;2023-01-28T13:08:17;98675.00;;;2.67;90.24
8894;BME280;4483;48.622;9.230;2023-01-28T13:10:46;98671.59;;;2.65;90.55
8894;BME280;4483;48.622;9.230;2023-01-28T13:13:16;98675.00;;;2.67;90.57
8894;BME280;4483;48.622;9.230;2023-01-28T13:15:44;98681.75;;;2.67;90.97
8894;BME280;4483;48.622;9.230;2023-01-28T13:18:29;98678.38;;;2.63;90.83
8894;BME280;4483;48.622;9.230;2023-01-28T13:20:56;98685.13;;;2.60;90.72
8894;BME280;4483;48.622;9.230;2023-01-28T13:23:35;98680.00;;;2.55;91.03
8894;BME280;4483;48.622;9.230;2023-01-28T13:26:09;98679.16;;;2.55;90.77
8894;BME280;4483;48.622;9.230;2023-01-28T13:28:36;98675.75;;;2.51;91.07
8894;BME280;4483;48.622;9.230;2023-01-28T13:31:08;98682.56;;;2.52;91.17
8894;BME280;4483;48.622;9.230;2023-01-28T13:33:39;98680.00;;;2.54;91.60
8894;BME280;4483;48.622;9.230;2023-01-28T13:36:21;98678.34;;;2.60;91.54
8894;BME280;4483;48.622;9.230;2023-01-28T13:39:00;98676.69;;;2.68;91.73
8894;BME280;4483;48.622;9.230;2023-01-28T13:41:39;98675.03;;;2.76;91.68
8894;BME280;4483;48.622;9.230;2023-01-28T13:44:20;98676.75;;;2.83;91.37
8894;BME280;4483;48.622;9.230;2023-01-28T13:46:47;98673.34;;;2.90;90.79
8894;BME280;4483;48.622;9.230;2023-01-28T13:49:16;98669.97;;;2.96;90.69
8894;BME280;4483;48.622;9.230;2023-01-28T13:51:57;98676.78;;;3.01;90.64